Bookmark and Share
Track history (hours):
 

Insular

Last reported at 2014-Apr-22 18:16 UTC. Time now 2014-Apr-24 14:02 UTC.
Position N 38°31' W 009°30'.

Length 120 m; draft 5.5 m.

Type: Ship (hazmat cat A). MMSI: 263752000.

NotesDate/timePositionNaut miles runAvg speedWind from/ knotsBaromVisibWave heightAir tempDewpointWater temp
2014-Apr-22 18:16N 38°31' W 009°30'1013.7
2014-Apr-22 17:32N 38°38' W 009°21'1211.8
2014-Apr-22 16:33N 38°42' W 009°08'2 1.9
2014-Apr-22 15:33N 38°44' W 009°06'0 0.0
2014-Apr-22 14:33N 38°44' W 009°06'0 0.0
2014-Apr-22 13:32N 38°44' W 009°06'0 0.0
2014-Apr-22 12:32N 38°44' W 009°06'0 0.0
2014-Apr-22 11:32N 38°44' W 009°06'0 0.0
2014-Apr-22 10:32N 38°44' W 009°06'0 0.0
2014-Apr-22 09:32N 38°44' W 009°06'0 0.0
2014-Apr-22 08:32N 38°44' W 009°06'0 0.0
2014-Apr-22 07:32N 38°44' W 009°06'0 0.0
2014-Apr-22 06:32N 38°44' W 009°06'0 0.0
2014-Apr-22 05:32N 38°44' W 009°06'0 0.0
2014-Apr-22 04:31N 38°44' W 009°06'0 0.0
2014-Apr-22 03:31N 38°44' W 009°06'0 0.0
2014-Apr-22 02:31N 38°44' W 009°06'0 0.0
2014-Apr-22 01:31N 38°44' W 009°06'0 0.0
2014-Apr-22 00:31N 38°44' W 009°06'0 0.0
2014-Apr-21 23:31N 38°44' W 009°06'0 0.0
2014-Apr-21 22:31N 38°44' W 009°06'0 0.0
2014-Apr-21 21:31N 38°44' W 009°06'0 0.0
2014-Apr-21 20:31N 38°44' W 009°06'0 0.0
2014-Apr-21 19:31N 38°44' W 009°06'0 0.0
2014-Apr-21 18:31N 38°44' W 009°06'0 0.0
2014-Apr-21 17:31N 38°44' W 009°06'0 0.0
2014-Apr-21 16:31N 38°44' W 009°06'0 0.0
2014-Apr-21 15:31N 38°44' W 009°06'0 0.0
2014-Apr-21 14:31N 38°44' W 009°06'0 0.0
2014-Apr-21 13:31N 38°44' W 009°06'0 0.0
2014-Apr-21 12:31N 38°44' W 009°06'0 0.0
2014-Apr-21 11:31N 38°44' W 009°06'0 0.0
2014-Apr-21 10:31N 38°44' W 009°06'0 0.0
2014-Apr-21 09:31N 38°44' W 009°06'0 0.0
2014-Apr-21 08:31N 38°44' W 009°06'0 0.0
2014-Apr-21 07:31N 38°44' W 009°06'0 0.3
2014-Apr-21 06:32N 38°44' W 009°06'4 3.3
2014-Apr-21 05:23N 38°42' W 009°10'0 0.0
2014-Apr-21 04:26N 38°42' W 009°10'0 0.0
2014-Apr-21 03:14N 38°42' W 009°10'0 0.0
2014-Apr-21 02:26N 38°42' W 009°10'0 0.0
2014-Apr-21 01:32N 38°42' W 009°10'0 0.0
2014-Apr-20 22:23N 38°42' W 009°10'0 0.0
2014-Apr-20 21:26N 38°42' W 009°10'0 0.0
2014-Apr-20 20:32N 38°42' W 009°10'0 0.0
2014-Apr-20 19:32N 38°42' W 009°10'0 0.0
2014-Apr-20 18:32N 38°42' W 009°10'0 0.0
2014-Apr-20 17:32N 38°42' W 009°10'0 0.0
2014-Apr-20 16:32N 38°42' W 009°10'0 0.0
2014-Apr-20 15:32N 38°42' W 009°10'0 0.0
2014-Apr-20 14:32N 38°42' W 009°10'0 0.0
2014-Apr-20 13:32N 38°42' W 009°10'0 0.0
2014-Apr-20 12:14N 38°42' W 009°10'0 0.0
2014-Apr-20 11:08N 38°42' W 009°10'0 0.0
2014-Apr-20 10:32N 38°42' W 009°10'0 0.0
2014-Apr-20 09:32N 38°42' W 009°10'0 0.0
2014-Apr-20 08:32N 38°42' W 009°10'0 0.0
2014-Apr-20 07:32N 38°42' W 009°10'0 0.0
2014-Apr-20 06:31N 38°42' W 009°10'0 0.0
2014-Apr-20 05:31N 38°42' W 009°10'0 0.0
2014-Apr-20 04:28N 38°42' W 009°10'0 0.0
2014-Apr-20 03:31N 38°42' W 009°10'0 0.0
2014-Apr-20 02:25N 38°42' W 009°10'0 0.0
2014-Apr-20 01:25N 38°42' W 009°10'0 0.0
2014-Apr-20 00:28N 38°42' W 009°10'0 0.0
2014-Apr-19 23:31N 38°42' W 009°10'0 0.0
2014-Apr-19 22:25N 38°42' W 009°10'0 0.0
2014-Apr-19 21:31N 38°42' W 009°10'0 0.0
2014-Apr-19 20:31N 38°42' W 009°10'0 0.0
2014-Apr-19 19:31N 38°42' W 009°10'0 0.0
2014-Apr-19 18:31N 38°42' W 009°10'0 0.0
2014-Apr-19 17:31N 38°42' W 009°10'0 0.0
2014-Apr-19 16:31N 38°42' W 009°10'0 0.0
2014-Apr-19 15:31N 38°42' W 009°10'1 1.5
2014-Apr-19 14:33N 38°41' W 009°12'  
2014-Apr-15 21:33N 38°03' W 010°09'3014.1
2014-Apr-15 19:25N 38°24' W 009°42'1213.7
2014-Apr-15 18:34N 38°31' W 009°30'1515.2
2014-Apr-15 17:34N 38°41' W 009°15'8 7.4
2014-Apr-15 16:32N 38°44' W 009°06'0 0.0
2014-Apr-15 15:32N 38°44' W 009°06'0 0.0
2014-Apr-15 14:30N 38°44' W 009°06'0 0.0
2014-Apr-15 12:33N 38°44' W 009°06'0 0.0
2014-Apr-15 11:33N 38°44' W 009°06'0 0.0
2014-Apr-15 10:33N 38°44' W 009°06'0 0.0
2014-Apr-15 09:33N 38°44' W 009°06'0 0.0
2014-Apr-15 08:33N 38°44' W 009°06'0 0.0
2014-Apr-15 07:33N 38°44' W 009°06'0 0.0
2014-Apr-15 06:33N 38°44' W 009°06'0 0.0
2014-Apr-15 05:33N 38°44' W 009°06'0 0.0
2014-Apr-15 03:33N 38°44' W 009°06'0 0.0
2014-Apr-15 02:33N 38°44' W 009°06'0 0.0
2014-Apr-15 01:33N 38°44' W 009°06'0 0.0
2014-Apr-15 00:33N 38°44' W 009°06'0 0.0
2014-Apr-14 23:33N 38°44' W 009°06'0 0.0
2014-Apr-14 22:33N 38°44' W 009°06'0 0.0
2014-Apr-14 21:33N 38°44' W 009°06'0 0.0
2014-Apr-14 20:33N 38°44' W 009°06'0 0.0
2014-Apr-14 19:33N 38°44' W 009°06'0 0.0
2014-Apr-14 18:33N 38°44' W 009°06'0 0.0
2014-Apr-14 17:33N 38°44' W 009°06'0 0.0
2014-Apr-14 16:33N 38°44' W 009°06'0 0.0
2014-Apr-14 15:33N 38°44' W 009°06'0 0.0
2014-Apr-14 14:33N 38°44' W 009°06'0 0.0
2014-Apr-14 13:33N 38°44' W 009°06'0 0.0
2014-Apr-14 11:32N 38°44' W 009°06'0 0.0
2014-Apr-14 10:32N 38°44' W 009°06'0 0.0
2014-Apr-14 09:32N 38°44' W 009°06'0 0.0
2014-Apr-14 08:32N 38°44' W 009°06'0 0.0
2014-Apr-14 07:32N 38°44' W 009°06'0 0.0
2014-Apr-14 06:29N 38°44' W 009°06'0 0.0
2014-Apr-14 05:32N 38°44' W 009°06'0 0.0
2014-Apr-13 22:32N 38°44' W 009°06'0 0.0
2014-Apr-13 21:32N 38°44' W 009°06'0 0.0
2014-Apr-13 20:32N 38°44' W 009°06'0 0.0
2014-Apr-13 19:32N 38°44' W 009°06'0 0.0
2014-Apr-13 18:32N 38°44' W 009°06'0 0.0
2014-Apr-13 17:32N 38°44' W 009°06'0 0.0
2014-Apr-13 16:32N 38°44' W 009°06'0 0.0
2014-Apr-13 15:32N 38°44' W 009°06'0 0.0
2014-Apr-13 14:32N 38°44' W 009°06'0 0.0
2014-Apr-13 13:32N 38°44' W 009°06'0 0.0
2014-Apr-13 12:32N 38°44' W 009°06'0 0.0
2014-Apr-13 11:32N 38°44' W 009°06'0 0.0
2014-Apr-13 10:32N 38°44' W 009°06'0 0.0
2014-Apr-13 09:32N 38°44' W 009°06'1 0.7
2014-Apr-13 08:33N 38°43' W 009°06'1111.2
2014-Apr-13 07:33N 38°39' W 009°20'1712.9
2014-Apr-13 06:14N 38°27' W 009°36'2112.7
2014-Apr-13 04:32N 38°12' W 009°55'1312.8
2014-Apr-13 03:33N 38°03' W 010°06'1412.8
2014-Apr-13 02:30N 37°54' W 010°18'1312.8
2014-Apr-13 01:27N 37°44' W 010°30'1112.7
2014-Apr-13 00:33N 37°36' W 010°40'  

Dump ship's entire track history

sailing weather and tide predictions

Insular — CSDD — position and weather